Time;durP1;ratioP1;P1;durP2;ratioP2;P2;SDS_P1;SDS_P2;PMS_P1;PMS_P2;Temp;Humidity;BMP_temperature;BMP_pressure;BME280_temperature;BME280_humidity;BME280_pressure;Samples;Min_cycle;Max_cycle;Signal;HPM_P1;HPM_P2
2023/04/29 00:02:13;;;;;;;;;;;;;;;;;;5072098;28;20346;-67
2023/04/29 00:04:39;;;;;;;;;;;;;;;;;;5074422;28;20019;-67
2023/04/29 00:07:07;;;;;;;;;;;;;;;;;;5074396;28;19934;-67
2023/04/29 00:09:33;;;;;;;;;;;;;;;;;;5079040;28;19928;-67
2023/04/29 00:11:59;;;;;;;;;;;;;;;;;;5076056;28;19946;-67
2023/04/29 00:14:25;;;;;;;;;;;;;;;;;;5072506;28;19926;-67
2023/04/29 00:16:51;;;;;;;;;;;;;;;;;;5073061;28;20627;-67
2023/04/29 00:19:17;;;;;;;;;;;;;;;;;;5056405;28;19924;-67
2023/04/29 00:21:43;;;;;;;;;;;;;;;;;;5056900;28;19935;-66
2023/04/29 00:24:09;;;;;;;;;;;;;;;;;;5055769;28;20538;-67
2023/04/29 00:26:35;;;;;;;;;;;;;;;;;;5057455;28;19924;-67
2023/04/29 00:29:01;;;;;;;;;;;;;;;;;;5055936;28;19947;-67
2023/04/29 00:31:28;;;;;;;;;;;;;;;;;;5071464;28;20349;-67
2023/04/29 00:33:55;;;;;;;;;;;;;;;;;;5052910;28;19928;-67
2023/04/29 00:36:21;;;;;;;;;;;;;;;;;;5076317;28;20010;-67
2023/04/29 00:38:46;;;;;;;;;;;;;;;;;;5066731;28;20023;-67
2023/04/29 00:41:12;;;;;;;;;;;;;;;;;;5065161;28;19981;-67
2023/04/29 00:43:38;;;;;;;;;;;;;;;;;;5086677;28;20373;-67
2023/04/29 00:46:04;;;;;;;;;;;;;;;;;;5070540;28;19920;-67
2023/04/29 00:48:31;;;;;;;;;;;;;;;;;;5072617;28;20289;-71
2023/04/29 00:50:57;;;;;;;;;;;;;;;;;;5058395;28;19928;-71
2023/04/29 00:53:23;;;;;;;;;;;;;;;;;;5056556;28;19924;-72
2023/04/29 00:55:50;;;;;;;;;;;;;;;;;;5090961;28;19931;-71
2023/04/29 00:58:16;;;;;;;;;;;;;;;;;;5092218;28;20194;-70
2023/04/29 01:00:42;;;;;;;;;;;;;;;;;;5090665;28;20033;-69
2023/04/29 01:03:08;;;;;;;;;;;;;;;;;;5071733;28;19931;-69
2023/04/29 01:05:35;;;;;;;;;;;;;;;;;;5071762;28;19920;-69
2023/04/29 01:08:01;;;;;;;;;;;;;;;;;;5070346;28;20065;-69
2023/04/29 01:10:27;;;;;;;;;;;;;;;;;;5073080;28;20007;-69
2023/04/29 01:12:53;;;;;;;;;;;;;;;;;;5069475;28;20341;-69
2023/04/29 01:15:19;;;;;;;;;;;;;;;;;;5054267;28;20361;-70
2023/04/29 01:17:45;;;;;;;;;;;;;;;;;;5072862;28;19958;-70
2023/04/29 01:20:11;;;;;;;;;;;;;;;;;;5119714;22;20559;-61
2023/04/29 01:22:38;;;;;;;;;;;;;;;;;;5107799;28;20019;-62
2023/04/29 01:25:04;;;;;;;;;;;;;;;;;;5112632;28;20416;-62
2023/04/29 01:27:30;;;;;;;;;;;;;;;;;;5114465;27;19920;-62
2023/04/29 01:29:56;;;;;;;;;;;;;;;;;;5111810;28;19930;-62
2023/04/29 01:32:22;;;;;;;;;;;;;;;;;;5112861;28;19970;-62
2023/04/29 01:34:48;;;;;;;;;;;;;;;;;;5110996;28;19926;-63
2023/04/29 01:37:14;;;;;;;;;;;;;;;;;;5111955;28;19924;-63
2023/04/29 01:39:40;;;;;;;;;;;;;;;;;;5107444;28;19920;-63
2023/04/29 01:42:06;;;;;;;;;;;;;;;;;;5092382;27;19924;-63
2023/04/29 01:44:32;;;;;;;;;;;;;;;;;;5110701;27;20022;-63
2023/04/29 01:46:57;;;;;;;;;;;;;;;;;;5085012;28;19926;-63
2023/04/29 01:49:23;;;;;;;;;;;;;;;;;;5092807;28;20010;-63
2023/04/29 01:51:49;;;;;;;;;;;;;;;;;;5108844;28;20391;-63
2023/04/29 01:54:15;;;;;;;;;;;;;;;;;;5106615;28;19923;-63
2023/04/29 01:56:41;;;;;;;;;;;;;;;;;;5103685;28;19927;-63
2023/04/29 01:59:07;;;;;;;;;;;;;;;;;;5109680;27;19927;-63
2023/04/29 02:01:33;;;;;;;;;;;;;;;;;;5111105;28;19934;-63
2023/04/29 02:03:59;;;;;;;;;;;;;;;;;;5113925;28;19924;-63
2023/04/29 02:06:25;;;;;;;;;;;;;;;;;;5095506;28;19927;-63
2023/04/29 02:08:51;;;;;;;;;;;;;;;;;;5110279;27;19932;-63
2023/04/29 02:11:17;;;;;;;;;;;;;;;;;;5112900;28;20889;-63
2023/04/29 02:13:43;;;;;;;;;;;;;;;;;;5104503;28;19920;-63
2023/04/29 02:16:09;;;;;;;;;;;;;;;;;;5091458;28;20601;-63
2023/04/29 02:18:34;;;;;;;;;;;;;;;;;;5118316;27;19972;-63
2023/04/29 02:21:01;;;;;;;;;;;;;;;;;;5112582;28;19928;-63
2023/04/29 02:23:27;;;;;;;;;;;;;;;;;;5103704;28;19956;-63
2023/04/29 02:25:53;;;;;;;;;;;;;;;;;;5107330;28;19924;-63
2023/04/29 02:28:19;;;;;;;;;;;;;;;;;;5088412;28;19919;-63
2023/04/29 02:30:44;;;;;;;;;;;;;;;;;;5083066;28;19926;-63
2023/04/29 02:33:10;;;;;;;;;;;;;;;;;;5104803;28;19924;-63
2023/04/29 02:35:36;;;;;;;;;;;;;;;;;;5076256;28;19967;-63
2023/04/29 02:38:02;;;;;;;;;;;;;;;;;;5104092;28;19920;-63
2023/04/29 02:40:28;;;;;;;;;;;;;;;;;;5084459;28;20015;-62
2023/04/29 02:42:54;;;;;;;;;;;;;;;;;;5107902;28;20014;-63
2023/04/29 02:45:20;;;;;;;;;;;;;;;;;;5104239;28;19951;-62
2023/04/29 02:47:46;;;;;;;;;;;;;;;;;;5096646;28;19926;-62
2023/04/29 02:50:12;;;;;;;;;;;;;;;;;;5108765;28;19920;-62
2023/04/29 02:52:40;;;;;;;;;;;;;;;;;;5107709;28;19981;-62
2023/04/29 02:55:06;;;;;;;;;;;;;;;;;;5089883;28;20266;-62
2023/04/29 02:57:32;;;;;;;;;;;;;;;;;;5070489;28;19930;-62
2023/04/29 02:59:58;;;;;;;;;;;;;;;;;;5104330;27;19928;-62
2023/04/29 03:02:25;;;;;;;;;;;;;;;;;;5109293;28;19928;-62
2023/04/29 03:04:51;;;;;;;;;;;;;;;;;;5108352;28;19926;-62
2023/04/29 03:07:17;;;;;;;;;;;;;;;;;;5093338;28;19924;-62
2023/04/29 03:09:43;;;;;;;;;;;;;;;;;;5110576;28;19927;-63
2023/04/29 03:12:09;;;;;;;;;;;;;;;;;;5092091;28;20229;-63
2023/04/29 03:14:35;;;;;;;;;;;;;;;;;;5112285;27;19927;-63
2023/04/29 03:17:01;;;;;;;;;;;;;;;;;;5106293;28;20456;-62
2023/04/29 03:19:27;;;;;;;;;;;;;;;;;;5089685;28;19969;-62
2023/04/29 03:21:53;;;;;;;;;;;;;;;;;;5100678;28;19931;-62
2023/04/29 03:24:19;;;;;;;;;;;;;;;;;;5078015;28;19977;-62
2023/04/29 03:26:45;;;;;;;;;;;;;;;;;;5090133;28;19927;-62
2023/04/29 03:29:11;;;;;;;;;;;;;;;;;;5111998;28;19980;-62
2023/04/29 03:31:37;;;;;;;;;;;;;;;;;;5092227;28;19923;-62
2023/04/29 03:34:03;;;;;;;;;;;;;;;;;;5092777;28;19961;-62
2023/04/29 03:36:29;;;;;;;;;;;;;;;;;;5098005;28;19924;-62
2023/04/29 03:38:54;;;;;;;;;;;;;;;;;;5087507;28;19920;-62
2023/04/29 03:41:22;;;;;;;;;;;;;;;;;;5096480;28;19970;-62
2023/04/29 03:43:48;;;;;;;;;;;;;;;;;;5085952;28;20319;-62
2023/04/29 03:46:14;;;;;;;;;;;;;;;;;;5095407;28;19969;-63
2023/04/29 03:48:40;;;;;;;;;;;;;;;;;;5107202;28;19920;-63
2023/04/29 03:51:06;;;;;;;;;;;;;;;;;;5103856;28;20277;-63
2023/04/29 03:53:32;;;;;;;;;;;;;;;;;;5110225;28;19999;-63
2023/04/29 03:55:58;;;;;;;;;;;;;;;;;;5110501;28;19988;-63
2023/04/29 03:58:24;;;;;;;;;;;;;;;;;;5114175;28;19923;-62
2023/04/29 04:00:50;;;;;;;;;;;;;;;;;;5107391;28;19970;-63
2023/04/29 04:03:16;;;;;;;;;;;;;;;;;;5105698;28;19923;-62
2023/04/29 04:05:41;;;;;;;;;;;;;;;;;;5103228;28;19920;-62
2023/04/29 04:08:07;;;;;;;;;;;;;;;;;;5110259;28;19981;-63
2023/04/29 04:10:33;;;;;;;;;;;;;;;;;;5103527;28;19927;-63
2023/04/29 04:12:59;;;;;;;;;;;;;;;;;;5099107;28;19924;-63
2023/04/29 04:15:25;;;;;;;;;;;;;;;;;;5102095;28;19977;-63
2023/04/29 04:17:51;;;;;;;;;;;;;;;;;;5092669;28;20325;-63
2023/04/29 04:20:17;;;;;;;;;;;;;;;;;;5105070;28;19927;-63
2023/04/29 04:22:43;;;;;;;;;;;;;;;;;;5109433;28;20308;-63
2023/04/29 04:25:09;;;;;;;;;;;;;;;;;;5100066;28;21240;-63
2023/04/29 04:27:35;;;;;;;;;;;;;;;;;;5096706;28;19922;-63
2023/04/29 04:30:00;;;;;;;;;;;;;;;;;;5109029;28;19982;-63
2023/04/29 04:32:26;;;;;;;;;;;;;;;;;;5073615;28;19920;-63
2023/04/29 04:34:52;;;;;;;;;;;;;;;;;;5108660;28;20006;-63
2023/04/29 04:37:18;;;;;;;;;;;;;;;;;;5108788;28;20424;-63
2023/04/29 04:39:45;;;;;;;;;;;;;;;;;;5087297;28;19928;-63
2023/04/29 04:42:10;;;;;;;;;;;;;;;;;;5101703;28;19924;-63
2023/04/29 04:44:37;;;;;;;;;;;;;;;;;;5101001;28;19924;-63
2023/04/29 04:47:03;;;;;;;;;;;;;;;;;;5090779;28;19920;-63
2023/04/29 04:49:28;;;;;;;;;;;;;;;;;;5108780;28;19926;-63
2023/04/29 04:51:54;;;;;;;;;;;;;;;;;;5110350;28;19973;-63
2023/04/29 04:54:20;;;;;;;;;;;;;;;;;;5109836;28;19920;-63
2023/04/29 04:56:47;;;;;;;;;;;;;;;;;;5114322;28;19920;-63
2023/04/29 04:59:13;;;;;;;;;;;;;;;;;;5114231;28;19923;-63
2023/04/29 05:01:39;;;;;;;;;;;;;;;;;;5111587;28;20485;-63
2023/04/29 05:04:04;;;;;;;;;;;;;;;;;;5072726;28;20011;-63
2023/04/29 05:06:30;;;;;;;;;;;;;;;;;;5097001;28;19924;-63
2023/04/29 05:08:56;;;;;;;;;;;;;;;;;;5114346;28;19927;-63
2023/04/29 05:11:22;;;;;;;;;;;;;;;;;;5114413;28;19920;-63
2023/04/29 05:13:48;;;;;;;;;;;;;;;;;;5112176;28;20435;-63
2023/04/29 05:16:16;;;;;;;;;;;;;;;;;;5108557;28;20364;-63
2023/04/29 05:18:44;;;;;;;;;;;;;;;;;;5091403;28;19920;-63
2023/04/29 05:21:09;;;;;;;;;;;;;;;;;;5106775;28;19931;-63
2023/04/29 05:23:35;;;;;;;;;;;;;;;;;;5087241;28;19924;-63
2023/04/29 05:26:01;;;;;;;;;;;;;;;;;;5083495;28;20305;-63
2023/04/29 05:28:27;;;;;;;;;;;;;;;;;;5107337;28;20060;-63
2023/04/29 05:30:53;;;;;;;;;;;;;;;;;;5078978;28;20008;-63
2023/04/29 05:33:19;;;;;;;;;;;;;;;;;;5111216;28;19989;-63
2023/04/29 05:35:45;;;;;;;;;;;;;;;;;;5110601;28;19920;-63
2023/04/29 05:38:11;;;;;;;;;;;;;;;;;;5087473;28;19920;-63
2023/04/29 05:40:37;;;;;;;;;;;;;;;;;;5114905;28;20376;-63
2023/04/29 05:43:03;;;;;;;;;;;;;;;;;;5086903;28;19928;-63
2023/04/29 05:45:29;;;;;;;;;;;;;;;;;;5090746;28;19926;-63
2023/04/29 05:47:55;;;;;;;;;;;;;;;;;;5106555;28;19920;-63
2023/04/29 05:50:20;;;;;;;;;;;;;;;;;;5107809;28;19927;-63
2023/04/29 05:52:46;;;;;;;;;;;;;;;;;;5087010;28;19924;-63
2023/04/29 05:55:12;;;;;;;;;;;;;;;;;;5089948;28;19968;-63
2023/04/29 05:57:39;;;;;;;;;;;;;;;;;;5093275;28;20438;-63
2023/04/29 06:00:05;;;;;;;;;;;;;;;;;;5112766;28;20387;-62
2023/04/29 06:02:32;;;;;;;;;;;;;;;;;;5110973;28;19920;-63
2023/04/29 06:04:58;;;;;;;;;;;;;;;;;;5077695;28;19919;-63
2023/04/29 06:07:24;;;;;;;;;;;;;;;;;;5095043;28;20297;-63
2023/04/29 06:09:49;;;;;;;;;;;;;;;;;;5114115;28;19919;-63
2023/04/29 06:12:15;;;;;;;;;;;;;;;;;;5064512;28;19920;-63
2023/04/29 06:14:41;;;;;;;;;;;;;;;;;;5083730;28;20316;-63
2023/04/29 06:17:07;;;;;;;;;;;;;;;;;;5077261;28;20007;-63
2023/04/29 06:19:33;;;;;;;;;;;;;;;;;;5095128;28;19928;-63
2023/04/29 06:21:59;;;;;;;;;;;;;;;;;;5114631;27;20344;-63
2023/04/29 06:24:25;;;;;;;;;;;;;;;;;;5114676;28;19977;-63
2023/04/29 06:26:51;;;;;;;;;;;;;;;;;;5113259;28;19955;-63
2023/04/29 06:29:17;;;;;;;;;;;;;;;;;;5114920;28;20006;-63
2023/04/29 06:31:43;;;;;;;;;;;;;;;;;;5107413;27;19970;-63
2023/04/29 06:34:10;;;;;;;;;;;;;;;;;;5103694;28;19920;-63
2023/04/29 06:36:36;;;;;;;;;;;;;;;;;;5100935;28;19924;-63
2023/04/29 06:39:02;;;;;;;;;;;;;;;;;;5112948;28;19920;-63
2023/04/29 06:41:28;;;;;;;;;;;;;;;;;;5098495;28;19947;-63
2023/04/29 06:43:54;;;;;;;;;;;;;;;;;;5106335;28;19935;-62
2023/04/29 06:46:20;;;;;;;;;;;;;;;;;;5112665;28;19920;-62
2023/04/29 06:48:46;;;;;;;;;;;;;;;;;;5107916;28;19947;-63
2023/04/29 06:51:12;;;;;;;;;;;;;;;;;;5066889;28;19924;-63
2023/04/29 06:53:38;;;;;;;;;;;;;;;;;;5100815;28;20021;-63
2023/04/29 06:56:04;;;;;;;;;;;;;;;;;;5104142;28;20367;-63
2023/04/29 06:58:30;;;;;;;;;;;;;;;;;;5104447;28;19969;-63
2023/04/29 07:00:56;;;;;;;;;;;;;;;;;;5104925;28;19923;-63
2023/04/29 07:03:22;;;;;;;;;;;;;;;;;;5106283;28;20366;-63
2023/04/29 07:05:48;;;;;;;;;;;;;;;;;;5108189;28;20311;-63
2023/04/29 07:08:14;;;;;;;;;;;;;;;;;;5107551;28;19976;-63
2023/04/29 07:10:40;;;;;;;;;;;;;;;;;;5089945;28;19920;-63
2023/04/29 07:13:06;;;;;;;;;;;;;;;;;;5101884;28;19920;-63
2023/04/29 07:15:32;;;;;;;;;;;;;;;;;;5095121;28;19924;-63
2023/04/29 07:17:59;;;;;;;;;;;;;;;;;;5112366;28;19920;-63
2023/04/29 07:20:26;;;;;;;;;;;;;;;;;;5104886;28;19930;-63
2023/04/29 07:22:51;;;;;;;;;;;;;;;;;;5111179;28;19964;-63
2023/04/29 07:25:17;;;;;;;;;;;;;;;;;;5113751;28;19920;-63
2023/04/29 07:27:43;;;;;;;;;;;;;;;;;;5094774;28;20308;-63
2023/04/29 07:30:09;;;;;;;;;;;;;;;;;;5091446;28;19963;-63
2023/04/29 07:32:36;;;;;;;;;;;;;;;;;;5110564;28;19927;-62
2023/04/29 07:35:01;;;;;;;;;;;;;;;;;;5091808;28;19920;-63
2023/04/29 07:37:27;;;;;;;;;;;;;;;;;;5105657;28;19924;-63
2023/04/29 07:39:53;;;;;;;;;;;;;;;;;;5106089;28;19992;-63
2023/04/29 07:42:19;;;;;;;;;;;;;;;;;;5094537;28;19919;-63
2023/04/29 07:44:45;;;;;;;;;;;;;;;;;;5108206;28;19920;-63
2023/04/29 07:47:11;;;;;;;;;;;;;;;;;;5090024;28;19923;-63
2023/04/29 07:49:37;;;;;;;;;;;;;;;;;;5093860;28;19920;-63
2023/04/29 07:52:03;;;;;;;;;;;;;;;;;;5110167;28;19973;-63
2023/04/29 07:54:29;;;;;;;;;;;;;;;;;;5091761;28;20427;-63
2023/04/29 07:56:55;;;;;;;;;;;;;;;;;;5103059;28;19946;-62
2023/04/29 07:59:21;;;;;;;;;;;;;;;;;;5091025;28;19962;-62
2023/04/29 08:01:47;;;;;;;;;;;;;;;;;;5105086;28;19967;-62
2023/04/29 08:04:12;;;;;;;;;;;;;;;;;;5104832;28;19923;-62
2023/04/29 08:06:40;;;;;;;;;;;;;;;;;;5107313;28;19931;-62
2023/04/29 08:09:06;;;;;;;;;;;;;;;;;;5077122;28;19920;-62
2023/04/29 08:11:32;;;;;;;;;;;;;;;;;;5112709;28;19926;-62
2023/04/29 08:13:59;;;;;;;;;;;;;;;;;;5112682;28;20339;-62
2023/04/29 08:16:25;;;;;;;;;;;;;;;;;;5094515;28;19920;-62
2023/04/29 08:18:51;;;;;;;;;;;;;;;;;;5112409;28;20376;-62
2023/04/29 08:21:18;;;;;;;;;;;;;;;;;;5077963;28;19969;-62
2023/04/29 08:23:44;;;;;;;;;;;;;;;;;;5084783;28;20432;-62
2023/04/29 08:26:10;;;;;;;;;;;;;;;;;;5096113;28;20377;-62
2023/04/29 08:28:36;;;;;;;;;;;;;;;;;;5095555;28;19920;-62
2023/04/29 08:31:02;;;;;;;;;;;;;;;;;;5096002;28;19920;-62
2023/04/29 08:33:28;;;;;;;;;;;;;;;;;;5091140;28;19920;-62
2023/04/29 08:35:54;;;;;;;;;;;;;;;;;;5091874;28;20053;-62
2023/04/29 08:38:20;;;;;;;;;;;;;;;;;;5092834;28;19924;-62
2023/04/29 08:40:46;;;;;;;;;;;;;;;;;;5072654;28;19924;-62
2023/04/29 08:43:12;;;;;;;;;;;;;;;;;;5093612;28;20369;-62
2023/04/29 08:45:38;;;;;;;;;;;;;;;;;;5077331;28;20354;-62
2023/04/29 08:48:04;;;;;;;;;;;;;;;;;;5072786;28;19928;-62
2023/04/29 08:50:30;;;;;;;;;;;;;;;;;;5069953;28;19927;-62
2023/04/29 08:52:56;;;;;;;;;;;;;;;;;;5094559;28;19926;-62
2023/04/29 08:55:22;;;;;;;;;;;;;;;;;;5094203;28;20421;-62
2023/04/29 08:57:48;;;;;;;;;;;;;;;;;;5092947;28;19927;-62
2023/04/29 09:00:14;;;;;;;;;;;;;;;;;;5090851;28;19959;-62
2023/04/29 09:02:39;;;;;;;;;;;;;;;;;;5084679;28;19943;-62
2023/04/29 09:05:06;;;;;;;;;;;;;;;;;;5062614;28;19924;-62
2023/04/29 09:07:32;;;;;;;;;;;;;;;;;;5074065;28;19924;-62
2023/04/29 09:09:58;;;;;;;;;;;;;;;;;;5095603;28;19981;-62
2023/04/29 09:12:24;;;;;;;;;;;;;;;;;;5107335;28;20293;-62
2023/04/29 09:14:50;;;;;;;;;;;;;;;;;;5092881;28;19928;-62
2023/04/29 09:17:17;;;;;;;;;;;;;;;;;;5094548;28;20428;-62
2023/04/29 09:19:42;;;;;;;;;;;;;;;;;;5115282;27;19924;-62
2023/04/29 09:22:08;;;;;;;;;;;;;;;;;;5107055;28;20333;-62
2023/04/29 09:24:34;;;;;;;;;;;;;;;;;;5119215;27;19923;-62
2023/04/29 09:27:02;;;;;;;;;;;;;;;;;;5112166;27;20540;-62
2023/04/29 09:29:28;;;;;;;;;;;;;;;;;;5101635;28;19920;-62
2023/04/29 09:31:56;;;;;;;;;;;;;;;;;;5102932;28;19923;-62
2023/04/29 09:34:22;;;;;;;;;;;;;;;;;;5103476;28;20062;-62
2023/04/29 09:36:48;;;;;;;;;;;;;;;;;;5107918;27;20003;-62
2023/04/29 09:39:14;;;;;;;;;;;;;;;;;;5090686;28;20369;-63
2023/04/29 09:41:40;;;;;;;;;;;;;;;;;;5096135;28;19939;-62
2023/04/29 09:44:06;;;;;;;;;;;;;;;;;;5109606;28;20053;-62
2023/04/29 09:46:32;;;;;;;;;;;;;;;;;;5085217;28;19919;-62
2023/04/29 09:48:58;;;;;;;;;;;;;;;;;;5101998;28;20016;-62
2023/04/29 09:51:24;;;;;;;;;;;;;;;;;;5115030;28;20411;-62
2023/04/29 09:53:49;;;;;;;;;;;;;;;;;;5111320;28;19919;-62
2023/04/29 09:56:15;;;;;;;;;;;;;;;;;;5087404;28;20007;-62
2023/04/29 09:58:41;;;;;;;;;;;;;;;;;;5071520;28;20316;-62
2023/04/29 10:01:07;;;;;;;;;;;;;;;;;;5105037;28;19931;-62
2023/04/29 10:03:33;;;;;;;;;;;;;;;;;;5106513;28;19927;-62
2023/04/29 10:05:59;;;;;;;;;;;;;;;;;;5098605;28;20274;-62
2023/04/29 10:08:25;;;;;;;;;;;;;;;;;;5107798;28;19920;-62
2023/04/29 10:10:56;;;;;;;;;;;;;;;;;;5085959;28;19920;-62
2023/04/29 10:13:22;;;;;;;;;;;;;;;;;;5080597;28;19942;-62
2023/04/29 10:15:48;;;;;;;;;;;;;;;;;;5113730;28;20302;-62
2023/04/29 10:18:14;;;;;;;;;;;;;;;;;;5089482;28;20007;-62
2023/04/29 10:20:40;;;;;;;;;;;;;;;;;;5098678;28;19931;-62
2023/04/29 10:23:06;;;;;;;;;;;;;;;;;;5108338;28;19920;-62
2023/04/29 10:25:32;;;;;;;;;;;;;;;;;;5085096;28;19920;-62
2023/04/29 10:27:58;;;;;;;;;;;;;;;;;;5108629;28;19920;-62
2023/04/29 10:30:24;;;;;;;;;;;;;;;;;;5089031;28;20361;-62
2023/04/29 10:32:50;;;;;;;;;;;;;;;;;;5110957;28;19920;-62
2023/04/29 10:35:18;;;;;;;;;;;;;;;;;;5109454;28;20023;-62
2023/04/29 10:37:44;;;;;;;;;;;;;;;;;;5105185;28;19928;-62
2023/04/29 10:40:10;;;;;;;;;;;;;;;;;;5092809;28;19935;-62
2023/04/29 10:42:38;;;;;;;;;;;;;;;;;;5109495;27;20007;-63
2023/04/29 10:45:04;;;;;;;;;;;;;;;;;;5122467;27;20000;-63
2023/04/29 10:47:30;;;;;;;;;;;;;;;;;;5093075;28;20286;-63
2023/04/29 10:49:56;;;;;;;;;;;;;;;;;;5096310;28;19931;-63
2023/04/29 10:52:22;;;;;;;;;;;;;;;;;;5110784;28;19928;-63
2023/04/29 10:54:48;;;;;;;;;;;;;;;;;;5119266;27;20528;-63
2023/04/29 10:57:13;;;;;;;;;;;;;;;;;;5093117;28;20013;-63
2023/04/29 10:59:39;;;;;;;;;;;;;;;;;;5121990;27;19923;-63
2023/04/29 11:02:05;;;;;;;;;;;;;;;;;;5118554;27;19931;-62
2023/04/29 11:04:31;;;;;;;;;;;;;;;;;;5111755;27;19920;-63
2023/04/29 11:06:58;;;;;;;;;;;;;;;;;;5105602;28;20300;-63
2023/04/29 11:09:24;;;;;;;;;;;;;;;;;;5098958;28;20293;-63
2023/04/29 11:11:51;;;;;;;;;;;;;;;;;;5101013;28;19920;-63
2023/04/29 11:14:16;;;;;;;;;;;;;;;;;;5104625;28;20057;-63
2023/04/29 11:16:42;;;;;;;;;;;;;;;;;;5094345;28;19919;-63
2023/04/29 11:19:08;;;;;;;;;;;;;;;;;;5090054;28;19919;-63
2023/04/29 11:21:34;;;;;;;;;;;;;;;;;;5103191;28;19927;-63
2023/04/29 11:24:01;;;;;;;;;;;;;;;;;;5078222;28;20295;-63
2023/04/29 11:26:27;;;;;;;;;;;;;;;;;;5113330;27;19919;-62
2023/04/29 11:28:53;;;;;;;;;;;;;;;;;;5113192;28;20414;-62
2023/04/29 11:31:19;;;;;;;;;;;;;;;;;;5111377;28;19923;-63
2023/04/29 11:33:45;;;;;;;;;;;;;;;;;;5112006;28;20380;-62
2023/04/29 11:36:11;;;;;;;;;;;;;;;;;;5102169;28;20003;-62
2023/04/29 11:38:37;;;;;;;;;;;;;;;;;;5081374;28;20368;-62
2023/04/29 11:41:03;;;;;;;;;;;;;;;;;;5097649;28;19932;-62
2023/04/29 11:43:29;;;;;;;;;;;;;;;;;;5108680;28;19935;-62
2023/04/29 11:45:54;;;;;;;;;;;;;;;;;;5092373;28;19920;-62
2023/04/29 11:48:20;;;;;;;;;;;;;;;;;;5110032;28;20045;-62
2023/04/29 11:50:47;;;;;;;;;;;;;;;;;;5102881;28;20035;-62
2023/04/29 11:53:12;;;;;;;;;;;;;;;;;;5110410;28;19919;-62
2023/04/29 11:55:38;;;;;;;;;;;;;;;;;;5086664;28;19942;-62
2023/04/29 11:58:04;;;;;;;;;;;;;;;;;;5107521;27;19930;-62
2023/04/29 12:00:30;;;;;;;;;;;;;;;;;;5112598;28;19928;-62
2023/04/29 12:02:56;;;;;;;;;;;;;;;;;;5116648;27;20388;-62
2023/04/29 12:05:22;;;;;;;;;;;;;;;;;;5115487;28;20386;-63
2023/04/29 12:07:48;;;;;;;;;;;;;;;;;;5114626;28;19923;-63
2023/04/29 12:10:14;;;;;;;;;;;;;;;;;;5115135;27;20031;-63
2023/04/29 12:12:42;;;;;;;;;;;;;;;;;;5116787;27;19920;-63
2023/04/29 12:15:08;;;;;;;;;;;;;;;;;;5096966;28;19920;-63
2023/04/29 12:17:34;;;;;;;;;;;;;;;;;;5114239;28;19924;-63
2023/04/29 12:20:00;;;;;;;;;;;;;;;;;;5094406;27;19931;-63
2023/04/29 12:22:26;;;;;;;;;;;;;;;;;;5111217;28;19924;-61
2023/04/29 12:24:53;;;;;;;;;;;;;;;;;;5115436;28;19931;-62
2023/04/29 12:27:19;;;;;;;;;;;;;;;;;;5115646;27;19957;-62
2023/04/29 12:29:45;;;;;;;;;;;;;;;;;;5112448;27;19926;-62
2023/04/29 12:32:11;;;;;;;;;;;;;;;;;;5111006;28;19930;-62
2023/04/29 12:34:37;;;;;;;;;;;;;;;;;;5113343;27;20365;-62
2023/04/29 12:37:03;;;;;;;;;;;;;;;;;;5112624;28;19920;-63
2023/04/29 12:39:29;;;;;;;;;;;;;;;;;;5115173;28;19927;-63
2023/04/29 12:41:56;;;;;;;;;;;;;;;;;;5101402;28;20381;-63
2023/04/29 12:44:22;;;;;;;;;;;;;;;;;;5115100;27;19924;-63
2023/04/29 12:46:48;;;;;;;;;;;;;;;;;;5096445;28;19927;-63
2023/04/29 12:49:14;;;;;;;;;;;;;;;;;;5112933;28;20480;-63
2023/04/29 12:51:40;;;;;;;;;;;;;;;;;;5108857;28;20004;-63
2023/04/29 12:54:06;;;;;;;;;;;;;;;;;;5114152;27;19978;-63
2023/04/29 12:56:32;;;;;;;;;;;;;;;;;;5118259;27;19930;-63
2023/04/29 12:58:57;;;;;;;;;;;;;;;;;;5097009;28;20057;-63
2023/04/29 13:01:23;;;;;;;;;;;;;;;;;;5108673;28;19924;-63
2023/04/29 13:03:51;;;;;;;;;;;;;;;;;;5098577;28;21264;-63
2023/04/29 13:06:17;;;;;;;;;;;;;;;;;;5114901;28;20548;-63
2023/04/29 13:08:43;;;;;;;;;;;;;;;;;;5114215;28;19972;-63
2023/04/29 13:11:09;;;;;;;;;;;;;;;;;;5095482;28;19993;-63
2023/04/29 13:13:35;;;;;;;;;;;;;;;;;;5110902;27;19923;-63
2023/04/29 13:16:02;;;;;;;;;;;;;;;;;;5107950;28;20394;-63
2023/04/29 13:18:27;;;;;;;;;;;;;;;;;;5109302;28;19965;-63
2023/04/29 13:20:53;;;;;;;;;;;;;;;;;;5111336;27;19939;-63
2023/04/29 13:23:19;;;;;;;;;;;;;;;;;;5094749;28;19981;-63
2023/04/29 13:25:45;;;;;;;;;;;;;;;;;;5079619;28;20246;-63
2023/04/29 13:28:11;;;;;;;;;;;;;;;;;;5106678;27;19977;-63
2023/04/29 13:30:37;;;;;;;;;;;;;;;;;;5117583;27;19924;-63
2023/04/29 13:33:03;;;;;;;;;;;;;;;;;;5114349;27;19919;-63
2023/04/29 13:35:29;;;;;;;;;;;;;;;;;;5124490;22;19958;-63
2023/04/29 13:37:56;;;;;;;;;;;;;;;;;;5057270;28;19985;-63
2023/04/29 13:40:22;;;;;;;;;;;;;;;;;;5051082;28;20357;-63
2023/04/29 13:42:47;;;;;;;;;;;;;;;;;;5053700;28;19960;-63
2023/04/29 13:45:14;;;;;;;;;;;;;;;;;;5050680;28;19924;-63
2023/04/29 13:47:39;;;;;;;;;;;;;;;;;;5051497;28;19931;-64
2023/04/29 13:50:06;;;;;;;;;;;;;;;;;;5051015;28;19921;-64
2023/04/29 13:52:32;;;;;;;;;;;;;;;;;;5049569;28;20683;-64
2023/04/29 13:54:58;;;;;;;;;;;;;;;;;;5059107;28;20718;-63
2023/04/29 13:57:26;;;;;;;;;;;;;;;;;;5051731;28;19928;-63
2023/04/29 13:59:53;;;;;;;;;;;;;;;;;;5043718;28;20067;-63
2023/04/29 14:02:19;;;;;;;;;;;;;;;;;;5046524;28;20327;-63
2023/04/29 14:04:46;;;;;;;;;;;;;;;;;;5043120;28;19928;-63
2023/04/29 14:07:12;;;;;;;;;;;;;;;;;;5046279;28;19932;-63
2023/04/29 14:09:39;;;;;;;;;;;;;;;;;;5047069;28;19921;-63
2023/04/29 14:12:04;;;;;;;;;;;;;;;;;;5031748;28;19999;-63
2023/04/29 14:14:30;;;;;;;;;;;;;;;;;;5046443;28;20050;-64
2023/04/29 14:16:56;;;;;;;;;;;;;;;;;;5053203;28;20512;-64
2023/04/29 14:19:22;;;;;;;;;;;;;;;;;;5026737;28;20390;-63
2023/04/29 14:21:48;;;;;;;;;;;;;;;;;;5052521;28;19925;-64
2023/04/29 14:24:14;;;;;;;;;;;;;;;;;;5053717;28;19955;-64
2023/04/29 14:26:40;;;;;;;;;;;;;;;;;;5035336;28;20297;-64
2023/04/29 14:29:07;;;;;;;;;;;;;;;;;;5054903;28;19921;-64
2023/04/29 14:31:34;;;;;;;;;;;;;;;;;;5044489;28;20393;-64
2023/04/29 14:34:00;;;;;;;;;;;;;;;;;;5050961;28;19956;-64
2023/04/29 14:36:26;;;;;;;;;;;;;;;;;;5028171;28;20023;-64
2023/04/29 14:38:52;;;;;;;;;;;;;;;;;;5012879;28;19921;-64
2023/04/29 14:41:20;;;;;;;;;;;;;;;;;;5031739;28;19979;-64
2023/04/29 14:43:46;;;;;;;;;;;;;;;;;;5043133;28;19928;-63
2023/04/29 14:46:12;;;;;;;;;;;;;;;;;;5031637;28;19921;-64
2023/04/29 14:48:38;;;;;;;;;;;;;;;;;;5031468;28;20310;-64
2023/04/29 14:51:04;;;;;;;;;;;;;;;;;;5011633;28;19921;-64
2023/04/29 14:53:30;;;;;;;;;;;;;;;;;;5028017;28;19953;-64
2023/04/29 14:55:56;;;;;;;;;;;;;;;;;;5011835;28;20335;-64
2023/04/29 14:58:22;;;;;;;;;;;;;;;;;;5010959;28;19971;-64
2023/04/29 15:00:49;;;;;;;;;;;;;;;;;;5021737;28;19933;-64
2023/04/29 15:03:15;;;;;;;;;;;;;;;;;;5004018;28;19951;-63
2023/04/29 15:05:41;;;;;;;;;;;;;;;;;;5010574;28;19921;-63
2023/04/29 15:08:07;;;;;;;;;;;;;;;;;;5030355;28;20279;-63
2023/04/29 15:10:33;;;;;;;;;;;;;;;;;;5028602;28;20349;-63
2023/04/29 15:13:00;;;;;;;;;;;;;;;;;;5030264;28;19925;-64
2023/04/29 15:15:25;;;;;;;;;;;;;;;;;;5034322;28;19928;-64
2023/04/29 15:17:51;;;;;;;;;;;;;;;;;;5030578;28;20382;-64
2023/04/29 15:20:17;;;;;;;;;;;;;;;;;;5027040;28;19929;-64
2023/04/29 15:22:43;;;;;;;;;;;;;;;;;;5012431;28;20347;-64
2023/04/29 15:25:09;;;;;;;;;;;;;;;;;;5026137;28;19921;-64
2023/04/29 15:27:35;;;;;;;;;;;;;;;;;;4984686;28;19933;-64
2023/04/29 15:30:01;;;;;;;;;;;;;;;;;;5025351;28;19932;-64
2023/04/29 15:32:30;;;;;;;;;;;;;;;;;;5026468;28;19929;-64
2023/04/29 15:34:56;;;;;;;;;;;;;;;;;;5012189;28;20438;-64
2023/04/29 15:37:22;;;;;;;;;;;;;;;;;;5046308;28;20016;-64
2023/04/29 15:39:48;;;;;;;;;;;;;;;;;;5046862;28;19921;-64
2023/04/29 15:42:14;;;;;;;;;;;;;;;;;;5046864;28;19977;-64
2023/04/29 15:44:40;;;;;;;;;;;;;;;;;;5052850;28;20673;-64
2023/04/29 15:47:06;;;;;;;;;;;;;;;;;;5050283;28;20444;-64
2023/04/29 15:49:32;;;;;;;;;;;;;;;;;;5048324;28;19960;-64
2023/04/29 15:51:58;;;;;;;;;;;;;;;;;;5058465;28;19981;-64
2023/04/29 15:54:24;;;;;;;;;;;;;;;;;;5048595;28;20741;-64
2023/04/29 15:56:49;;;;;;;;;;;;;;;;;;5049446;28;20022;-63
2023/04/29 15:59:15;;;;;;;;;;;;;;;;;;5051283;28;20464;-63
2023/04/29 16:01:41;;;;;;;;;;;;;;;;;;5050917;28;19928;-63
2023/04/29 16:04:07;;;;;;;;;;;;;;;;;;5050884;28;19932;-64
2023/04/29 16:06:33;;;;;;;;;;;;;;;;;;5045040;28;19929;-64
2023/04/29 16:09:00;;;;;;;;;;;;;;;;;;5070282;28;20353;-64
2023/04/29 16:11:26;;;;;;;;;;;;;;;;;;5062701;28;19921;-64
2023/04/29 16:13:52;;;;;;;;;;;;;;;;;;5052480;28;20579;-64
2023/04/29 16:16:18;;;;;;;;;;;;;;;;;;5048608;28;19960;-64
2023/04/29 16:18:44;;;;;;;;;;;;;;;;;;5017470;28;20012;-63
2023/04/29 16:21:11;;;;;;;;;;;;;;;;;;5048156;28;20551;-63
2023/04/29 16:23:37;;;;;;;;;;;;;;;;;;5051086;28;19928;-63
2023/04/29 16:26:03;;;;;;;;;;;;;;;;;;5051208;28;19925;-63
2023/04/29 16:28:29;;;;;;;;;;;;;;;;;;5065072;28;20394;-63
2023/04/29 16:30:55;;;;;;;;;;;;;;;;;;5051420;28;19975;-63
2023/04/29 16:33:21;;;;;;;;;;;;;;;;;;5034918;28;19963;-63
2023/04/29 16:35:47;;;;;;;;;;;;;;;;;;5049453;28;19935;-63
2023/04/29 16:38:13;;;;;;;;;;;;;;;;;;5032258;28;19928;-63